KGTR/GTR METAR and TAF weather

Enter ICAO airport designator
Station Type Date Time Source
KGTR METAR 2021/07/26 12:56 UTC NOAA

KGTR 261256Z 20003KT 10SM CLR 26/26 A3000 RMK AO2 SLP165 T02610261


Station Type Date Time Source
KGTR Decoded METAR 2021/07/26 12:56 UTC NOAA

Columbus/West Point/Starkville, Golden Triangle Regional Airport, MS, United States (KGTR) 33-27N 088-35W
Jul 26, 2021 - 08:56 AM EDT / 2021.07.26 1256 UTC
Wind: from the SSW (200 degrees) at 3 MPH (3 KT):0
Visibility: 10 mile(s):0
Sky conditions: clear
Temperature: 79.0 F (26.1 C)
Dew Point: 79.0 F (26.1 C)
Relative Humidity: 100%
Pressure (altimeter): 30 in. Hg (1015 hPa)
ob: KGTR 261256Z 20003KT 10SM CLR 26/26 A3000 RMK AO2 SLP165 T02610261
cycle: 13

Station Type Date Time Source
KGTR TAF 2021/07/26 12:24 UTC NOAA

TAF KGTR 261122Z 2612/2712 06003KT P6SM BKN070
FM261300 VRB03KT P6SM FEW050
FM261800 24004KT P6SM VCTS SCT040CB SCT080
FM270000 VRB03KT P6SM FEW050 SCT100

Example: see airport list